New Century, Kansas
Current Conditions -  °F | °C
As of 5:53 AM on Tuesday 27 Jan 2015 (Local Time) from KIXD Reporting Station
Clear Clear  
Wind Chill: 23°   Ceiling: Unl
Heat Index: 31°   Visibility: 10mi
Dew Point: 28°   Wind: 8mph
Humidity: 89%   Direction: 350°N
Pressure: 30.1"   Gusts: NA
Location:  38.81°N, 94.93°W
Report Text: KIXD 271153Z 35007KT 10SM CLR M01/M02 A3010 RMK AO2 SLP197 T10061022 10050 21011 52006
Loading
Personal Weather Stations






























Interactive Weather Map New forecast layout! Learn more

10-Day Weather Forecast

Advertisements
Track Severe Weather on mobile